createdAt,value
2023-04-01T00:01:35.962Z,9.20
2023-04-01T00:04:03.544Z,9.10
2023-04-01T00:06:30.900Z,9.10
2023-04-01T00:08:58.712Z,9.10
2023-04-01T00:11:28.240Z,9.00
2023-04-01T00:13:56.849Z,9.00
2023-04-01T00:16:24.298Z,8.90
2023-04-01T00:18:51.866Z,9.00
2023-04-01T00:21:19.696Z,9.00
2023-04-01T00:23:47.210Z,9.00
2023-04-01T00:26:15.590Z,8.90
2023-04-01T00:28:43.314Z,8.90
2023-04-01T00:31:11.313Z,8.90
2023-04-01T00:33:39.396Z,8.80
2023-04-01T00:36:27.070Z,8.80
2023-04-01T00:38:54.499Z,8.80
2023-04-01T00:41:22.362Z,8.80
2023-04-01T00:43:51.034Z,8.80
2023-04-01T00:46:18.685Z,8.90
2023-04-01T00:48:51.314Z,8.80
2023-04-01T00:51:21.274Z,8.70
2023-04-01T00:53:50.427Z,8.70
2023-04-01T00:56:28.529Z,8.70
2023-04-01T00:59:18.260Z,8.70
2023-04-01T01:01:45.610Z,8.70
2023-04-01T01:04:27.502Z,8.70
2023-04-01T01:07:22.012Z,8.80
2023-04-01T01:10:17.888Z,8.80
2023-04-01T01:13:16.958Z,8.80
2023-04-01T01:15:48.409Z,8.80
2023-04-01T01:18:53.338Z,8.80
2023-04-01T01:21:41.020Z,8.90
2023-04-01T01:24:17.821Z,8.90
2023-04-01T01:26:48.218Z,9.00
2023-04-01T01:29:53.845Z,9.00
2023-04-01T01:32:24.048Z,9.00
2023-04-01T01:35:12.876Z,9.00
2023-04-01T01:37:40.483Z,9.00
2023-04-01T01:40:09.137Z,9.00
2023-04-01T01:42:39.844Z,8.90
2023-04-01T01:45:07.868Z,8.90
2023-04-01T01:47:35.489Z,8.90
2023-04-01T01:50:04.277Z,9.00
2023-04-01T01:52:31.649Z,8.90
2023-04-01T01:54:59.236Z,8.90
2023-04-01T01:57:34.930Z,8.90
2023-04-01T02:00:15.956Z,8.90
2023-04-01T02:02:46.408Z,9.00
2023-04-01T02:05:20.573Z,8.90
2023-04-01T02:07:52.512Z,8.90
2023-04-01T02:10:20.520Z,8.90
2023-04-01T02:12:47.867Z,9.00
2023-04-01T02:15:15.470Z,9.00
2023-04-01T02:17:46.416Z,8.90
2023-04-01T02:20:21.743Z,8.90
2023-04-01T02:22:53.971Z,9.00
2023-04-01T02:25:32.201Z,8.90
2023-04-01T02:27:59.882Z,8.90
2023-04-01T02:30:28.684Z,9.00
2023-04-01T02:32:57.249Z,9.00
2023-04-01T02:35:24.728Z,9.00
2023-04-01T02:37:52.094Z,8.90
2023-04-01T02:40:20.101Z,9.00
2023-04-01T02:42:47.390Z,8.90
2023-04-01T02:45:14.938Z,8.90
2023-04-01T02:47:42.712Z,8.90
2023-04-01T02:50:11.376Z,8.90
2023-04-01T02:52:38.785Z,8.90
2023-04-01T02:55:07.993Z,8.90
2023-04-01T02:57:35.511Z,8.90
2023-04-01T03:00:03.299Z,8.80
2023-04-01T03:02:30.850Z,8.80
2023-04-01T03:04:58.257Z,8.80
2023-04-01T03:07:25.752Z,8.80
2023-04-01T03:09:53.200Z,8.80
2023-04-01T03:12:20.650Z,8.90
2023-04-01T03:14:51.616Z,8.80
2023-04-01T03:17:18.957Z,8.80
2023-04-01T03:19:46.729Z,8.80
2023-04-01T03:22:14.671Z,8.80
2023-04-01T03:24:42.029Z,8.90
2023-04-01T03:27:09.332Z,8.90
2023-04-01T03:29:36.720Z,8.80
2023-04-01T03:32:04.153Z,8.70
2023-04-01T03:34:31.454Z,8.70
2023-04-01T03:36:59.379Z,8.70
2023-04-01T03:39:27.172Z,8.70
2023-04-01T03:41:56.524Z,8.70
2023-04-01T03:44:23.990Z,8.60
2023-04-01T03:46:53.990Z,8.50
2023-04-01T03:49:21.302Z,8.50
2023-04-01T03:51:48.591Z,8.50
2023-04-01T03:54:16.171Z,8.50
2023-04-01T03:56:44.703Z,8.40
2023-04-01T03:59:12.572Z,8.40
2023-04-01T04:01:39.894Z,8.40
2023-04-01T04:04:07.456Z,8.40
2023-04-01T04:06:34.827Z,8.50
2023-04-01T04:09:02.849Z,8.40
2023-04-01T04:11:32.089Z,8.30
2023-04-01T04:13:59.594Z,8.30
2023-04-01T04:16:27.490Z,8.30
2023-04-01T04:18:59.525Z,8.30
2023-04-01T04:21:26.842Z,8.40
2023-04-01T04:23:54.586Z,8.40
2023-04-01T04:26:22.247Z,8.40
2023-04-01T04:28:56.544Z,8.40
2023-04-01T04:31:24.415Z,8.50
2023-04-01T04:33:53.648Z,8.40
2023-04-01T04:36:21.142Z,8.40
2023-04-01T04:38:50.369Z,8.50
2023-04-01T04:41:18.862Z,8.50
2023-04-01T04:43:54.086Z,8.40
2023-04-01T04:46:23.017Z,8.50
2023-04-01T04:48:54.568Z,8.60
2023-04-01T04:51:22.706Z,8.50
2023-04-01T04:53:51.583Z,8.60
2023-04-01T04:56:22.418Z,8.60
2023-04-01T04:58:58.426Z,8.70
2023-04-01T05:01:34.436Z,8.70
2023-04-01T05:04:01.912Z,8.70
2023-04-01T05:06:30.539Z,8.70
2023-04-01T05:08:58.097Z,8.80
2023-04-01T05:11:26.921Z,8.90
2023-04-01T05:13:54.348Z,8.90
2023-04-01T05:16:22.008Z,8.90
2023-04-01T05:18:49.406Z,8.90
2023-04-01T05:21:17.116Z,8.90
2023-04-01T05:23:44.779Z,8.90
2023-04-01T05:26:13.493Z,8.90
2023-04-01T05:28:40.967Z,8.90
2023-04-01T05:31:08.571Z,9.00
2023-04-01T05:33:39.150Z,9.00
2023-04-01T05:36:14.661Z,9.00
2023-04-01T05:38:43.456Z,9.10
2023-04-01T05:41:13.257Z,9.20
2023-04-01T05:43:44.780Z,9.20
2023-04-01T05:46:32.846Z,9.10
2023-04-01T05:49:08.940Z,9.20
2023-04-01T05:51:36.616Z,9.20
2023-04-01T05:54:06.003Z,9.30
2023-04-01T05:56:33.372Z,9.30
2023-04-01T05:59:01.128Z,9.30
2023-04-01T06:01:28.485Z,9.20
2023-04-01T06:03:56.173Z,9.20
2023-04-01T06:06:28.334Z,9.20
2023-04-01T06:09:19.722Z,9.20
2023-04-01T06:11:59.030Z,9.20
2023-04-01T06:14:51.295Z,9.20
2023-04-01T06:17:39.663Z,9.30
2023-04-01T06:20:17.446Z,9.30
2023-04-01T06:22:51.473Z,9.20
2023-04-01T06:25:28.540Z,9.30
2023-04-01T06:27:56.324Z,9.20
2023-04-01T06:30:29.785Z,9.30
2023-04-01T06:33:29.729Z,9.30
2023-04-01T06:36:19.343Z,9.30
2023-04-01T06:38:49.498Z,9.30
2023-04-01T06:41:41.773Z,9.40
2023-04-01T06:44:56.521Z,9.40
2023-04-01T06:47:46.632Z,9.30
2023-04-01T06:51:18.553Z,9.40
2023-04-01T06:54:09.510Z,9.40
2023-04-01T06:56:59.220Z,9.50
2023-04-01T06:59:30.283Z,9.50
2023-04-01T07:02:13.055Z,9.60
2023-04-01T07:04:44.309Z,9.60
2023-04-01T07:07:22.851Z,9.80
2023-04-01T07:10:00.298Z,9.90
2023-04-01T07:12:34.871Z,10.00
2023-04-01T07:15:32.270Z,10.10
2023-04-01T07:18:04.520Z,10.10
2023-04-01T07:20:33.904Z,10.20
2023-04-01T07:23:05.726Z,10.10
2023-04-01T07:25:42.925Z,10.10
2023-04-01T07:28:42.300Z,10.10
2023-04-01T07:31:26.454Z,10.20
2023-04-01T07:34:26.534Z,10.30
2023-04-01T07:37:13.876Z,10.40
2023-04-01T07:40:01.288Z,10.50
2023-04-01T07:43:08.882Z,10.60
2023-04-01T07:46:06.764Z,10.70
2023-04-01T07:48:42.938Z,10.70
2023-04-01T07:51:32.669Z,10.70
2023-04-01T07:54:10.997Z,10.80
2023-04-01T07:56:38.491Z,10.90
2023-04-01T07:59:26.428Z,10.90
2023-04-01T08:02:10.954Z,10.90
2023-04-01T08:04:44.621Z,10.90
2023-04-01T08:07:26.303Z,10.90
2023-04-01T08:11:00.928Z,11.00
2023-04-01T08:13:43.243Z,11.00
2023-04-01T08:16:47.867Z,11.00
2023-04-01T08:19:43.177Z,11.00
2023-04-01T08:22:36.614Z,11.10
2023-04-01T08:25:15.190Z,11.20
2023-04-01T08:27:47.661Z,11.20
2023-04-01T08:30:20.013Z,11.30
2023-04-01T08:33:21.517Z,11.40
2023-04-01T08:35:53.523Z,11.50
2023-04-01T08:38:32.304Z,11.50
2023-04-01T08:41:19.219Z,11.50
2023-04-01T08:44:12.185Z,11.50
2023-04-01T08:47:01.438Z,11.50
2023-04-01T08:49:52.234Z,11.70
2023-04-01T08:53:11.476Z,11.90
2023-04-01T08:56:18.028Z,12.00
2023-04-01T08:58:55.461Z,12.10
2023-04-01T09:02:04.078Z,12.20
2023-04-01T09:05:24.596Z,12.30
2023-04-01T09:08:19.970Z,12.20
2023-04-01T09:10:59.410Z,12.30
2023-04-01T09:14:11.845Z,12.30
2023-04-01T09:17:03.071Z,12.50
2023-04-01T09:19:41.513Z,12.50
2023-04-01T09:22:39.668Z,12.60
2023-04-01T09:25:19.511Z,12.60
2023-04-01T09:27:53.298Z,12.50
2023-04-01T09:30:42.004Z,12.40
2023-04-01T09:33:27.998Z,12.40
2023-04-01T09:36:07.262Z,12.30
2023-04-01T09:38:40.569Z,12.30
2023-04-01T09:41:31.735Z,12.30
2023-04-01T09:44:38.028Z,12.40
2023-04-01T09:47:32.891Z,12.50
2023-04-01T09:50:28.115Z,12.50
2023-04-01T09:53:39.199Z,12.70
2023-04-01T09:56:14.047Z,12.80
2023-04-01T09:59:20.982Z,12.90
2023-04-01T10:02:12.421Z,13.10
2023-04-01T10:05:08.980Z,13.20
2023-04-01T10:07:54.818Z,13.10
2023-04-01T10:10:54.536Z,13.10
2023-04-01T10:13:59.598Z,13.10
2023-04-01T10:16:41.412Z,13.00
2023-04-01T10:19:36.937Z,13.00
2023-04-01T10:22:38.168Z,13.00
2023-04-01T10:25:39.537Z,13.00
2023-04-01T10:28:34.568Z,13.10
2023-04-01T10:31:35.389Z,13.30
2023-04-01T10:34:21.867Z,13.30
2023-04-01T10:36:53.274Z,13.30
2023-04-01T10:39:57.646Z,13.40
2023-04-01T10:42:49.824Z,13.40
2023-04-01T10:45:58.814Z,13.60
2023-04-01T10:49:08.721Z,13.60
2023-04-01T10:52:12.122Z,13.40
2023-04-01T10:55:36.312Z,13.30
2023-04-01T10:58:43.892Z,13.10
2023-04-01T11:02:12.194Z,13.00
2023-04-01T11:05:21.120Z,12.90
2023-04-01T11:08:06.602Z,12.80
2023-04-01T11:11:12.655Z,12.80
2023-04-01T11:13:59.419Z,12.70
2023-04-01T11:16:48.641Z,12.60
2023-04-01T11:19:34.894Z,12.60
2023-04-01T11:22:33.670Z,12.40
2023-04-01T11:25:31.607Z,12.30
2023-04-01T11:28:48.987Z,12.40
2023-04-01T11:31:38.571Z,12.40
2023-04-01T11:34:50.134Z,12.30
2023-04-01T11:37:33.550Z,12.30
2023-04-01T11:40:36.696Z,12.30
2023-04-01T11:43:54.535Z,12.20
2023-04-01T11:47:20.570Z,12.00
2023-04-01T11:49:54.114Z,11.90
2023-04-01T11:52:35.896Z,11.80
2023-04-01T11:55:18.231Z,11.80
2023-04-01T11:57:54.714Z,11.70
2023-04-01T12:00:27.944Z,11.60
2023-04-01T12:03:15.193Z,11.50
2023-04-01T12:05:45.695Z,11.50
2023-04-01T12:08:54.660Z,11.40
2023-04-01T12:11:27.914Z,11.30
2023-04-01T12:13:57.426Z,11.20
2023-04-01T12:16:52.633Z,11.10
2023-04-01T12:19:35.268Z,11.00
2023-04-01T12:22:11.578Z,11.00
2023-04-01T12:25:29.998Z,10.90
2023-04-01T12:28:19.031Z,10.80
2023-04-01T12:30:58.520Z,10.60
2023-04-01T12:33:58.977Z,10.60
2023-04-01T12:37:26.451Z,10.60
2023-04-01T12:40:22.160Z,10.60
2023-04-01T12:43:18.377Z,10.50
2023-04-01T12:45:51.733Z,10.40
2023-04-01T12:48:57.483Z,10.40
2023-04-01T12:51:33.778Z,10.30
2023-04-01T12:54:23.789Z,10.40
2023-04-01T12:57:06.463Z,10.40
2023-04-01T12:59:57.130Z,10.40
2023-04-01T13:02:47.260Z,10.30
2023-04-01T13:05:37.961Z,10.30
2023-04-01T13:08:17.755Z,10.30
2023-04-01T13:10:59.919Z,10.30
2023-04-01T13:13:58.073Z,10.30
2023-04-01T13:16:29.001Z,10.30
2023-04-01T13:19:27.059Z,10.30
2023-04-01T13:22:18.561Z,10.20
2023-04-01T13:25:01.473Z,10.10
2023-04-01T13:27:34.249Z,10.10
2023-04-01T13:30:27.965Z,10.10
2023-04-01T13:33:33.485Z,10.10
2023-04-01T13:36:40.314Z,10.20
2023-04-01T13:39:25.864Z,10.20
2023-04-01T13:42:15.748Z,10.20
2023-04-01T13:44:46.241Z,10.20
2023-04-01T13:47:41.369Z,10.20
2023-04-01T13:50:30.528Z,10.20
2023-04-01T13:53:17.999Z,10.20
2023-04-01T13:56:15.936Z,10.20
2023-04-01T13:59:05.423Z,10.20
2023-04-01T14:01:50.297Z,10.30
2023-04-01T14:04:36.275Z,10.30
2023-04-01T14:07:48.709Z,10.30
2023-04-01T14:10:33.672Z,10.40
2023-04-01T14:13:03.155Z,10.40
2023-04-01T14:15:52.205Z,10.40
2023-04-01T14:18:33.121Z,10.40
2023-04-01T14:21:21.951Z,10.50
2023-04-01T14:24:07.816Z,10.60
2023-04-01T14:27:12.329Z,10.50
2023-04-01T14:29:39.614Z,10.50
2023-04-01T14:32:14.288Z,10.50
2023-04-01T14:34:59.711Z,10.60
2023-04-01T14:37:38.818Z,10.60
2023-04-01T14:40:07.418Z,10.50
2023-04-01T14:42:49.110Z,10.60
2023-04-01T14:45:34.865Z,10.70
2023-04-01T14:48:27.715Z,10.70
2023-04-01T14:50:56.632Z,10.80
2023-04-01T14:53:23.958Z,10.80
2023-04-01T14:55:52.199Z,10.80
2023-04-01T14:58:22.783Z,10.80
2023-04-01T15:00:57.992Z,10.80
2023-04-01T15:03:38.382Z,10.80
2023-04-01T15:06:28.692Z,10.80
2023-04-01T15:09:14.316Z,10.80
2023-04-01T15:12:00.048Z,10.80
2023-04-01T15:14:31.279Z,10.80
2023-04-01T15:17:17.780Z,10.80
2023-04-01T15:19:57.272Z,10.70
2023-04-01T15:22:43.083Z,10.60
2023-04-01T15:25:32.269Z,10.60
2023-04-01T15:28:26.621Z,10.60
2023-04-01T15:31:06.350Z,10.60
2023-04-01T15:34:08.276Z,10.70
2023-04-01T15:36:54.350Z,10.70
2023-04-01T15:39:25.505Z,10.90
2023-04-01T15:42:08.004Z,12.20
2023-04-01T15:44:53.481Z,12.20
2023-04-01T15:47:34.831Z,12.10
2023-04-01T15:50:29.129Z,12.60
2023-04-01T15:52:59.421Z,13.10
2023-04-01T15:55:32.857Z,12.70
2023-04-01T15:58:19.205Z,12.60
2023-04-01T16:01:24.903Z,12.70
2023-04-01T16:04:25.660Z,13.70
2023-04-01T16:07:44.626Z,14.00
2023-04-01T16:10:37.493Z,14.40
2023-04-01T16:13:16.942Z,14.70
2023-04-01T16:15:44.396Z,14.90
2023-04-01T16:18:30.018Z,15.10
2023-04-01T16:21:02.198Z,15.00
2023-04-01T16:23:52.617Z,14.40
2023-04-01T16:26:32.033Z,13.90
2023-04-01T16:29:27.190Z,13.30
2023-04-01T16:32:03.953Z,12.80
2023-04-01T16:34:39.013Z,12.50
2023-04-01T16:37:14.173Z,12.20
2023-04-01T16:39:54.468Z,12.00
2023-04-01T16:42:25.525Z,11.90
2023-04-01T16:45:07.209Z,11.70
2023-04-01T16:47:37.610Z,11.60
2023-04-01T16:50:18.265Z,11.50
2023-04-01T16:53:03.061Z,11.40
2023-04-01T16:55:36.757Z,11.30
2023-04-01T16:58:04.492Z,11.30
2023-04-01T17:00:39.363Z,11.20
2023-04-01T17:03:13.443Z,11.10
2023-04-01T17:05:56.896Z,11.00
2023-04-01T17:08:37.670Z,11.00
2023-04-01T17:11:36.977Z,10.90
2023-04-01T17:14:16.592Z,10.90
2023-04-01T17:17:02.264Z,10.90
2023-04-01T17:19:51.078Z,10.90
2023-04-01T17:22:33.253Z,10.90
2023-04-01T17:25:04.852Z,10.90
2023-04-01T17:27:40.027Z,10.80
2023-04-01T17:30:32.840Z,10.80
2023-04-01T17:33:22.176Z,10.70
2023-04-01T17:36:08.137Z,10.60
2023-04-01T17:39:05.401Z,10.60
2023-04-01T17:41:55.619Z,10.60
2023-04-01T17:44:50.736Z,10.70
2023-04-01T17:47:24.383Z,10.70
2023-04-01T17:50:10.136Z,10.70
2023-04-01T17:52:47.134Z,10.80
2023-04-01T17:55:29.600Z,10.80
2023-04-01T17:58:18.249Z,10.90
2023-04-01T18:01:25.853Z,10.90
2023-04-01T18:04:11.766Z,10.90
2023-04-01T18:07:16.939Z,10.90
2023-04-01T18:09:44.215Z,10.90
2023-04-01T18:12:53.506Z,10.90
2023-04-01T18:15:34.414Z,10.90
2023-04-01T18:18:49.621Z,10.80
2023-04-01T18:21:38.125Z,10.70
2023-04-01T18:24:24.293Z,10.70
2023-04-01T18:27:14.368Z,10.60
2023-04-01T18:29:42.890Z,10.60
2023-04-01T18:32:36.097Z,10.60
2023-04-01T18:35:36.017Z,10.50
2023-04-01T18:38:13.533Z,10.60
2023-04-01T18:40:44.725Z,10.60
2023-04-01T18:43:40.942Z,10.60
2023-04-01T18:46:11.380Z,10.50
2023-04-01T18:49:00.042Z,10.50
2023-04-01T18:51:50.745Z,10.40
2023-04-01T18:54:24.275Z,10.50
2023-04-01T18:56:51.846Z,10.50
2023-04-01T18:59:40.653Z,10.60
2023-04-01T19:02:29.902Z,10.70
2023-04-01T19:04:58.955Z,10.60
2023-04-01T19:07:38.317Z,10.50
2023-04-01T19:10:34.680Z,10.60
2023-04-01T19:13:05.038Z,10.50
2023-04-01T19:16:01.436Z,10.40
2023-04-01T19:18:37.921Z,10.40
2023-04-01T19:21:22.768Z,10.40
2023-04-01T19:24:02.272Z,10.40
2023-04-01T19:26:43.556Z,10.50
2023-04-01T19:29:18.237Z,10.60
2023-04-01T19:31:59.326Z,10.60
2023-04-01T19:34:29.153Z,10.70
2023-04-01T19:37:03.239Z,10.60
2023-04-01T19:39:56.458Z,10.60
2023-04-01T19:43:11.283Z,10.60
2023-04-01T19:45:52.519Z,10.50
2023-04-01T19:48:42.448Z,10.40
2023-04-01T19:51:13.925Z,10.30
2023-04-01T19:54:10.432Z,10.20
2023-04-01T19:56:42.608Z,10.20
2023-04-01T19:59:39.840Z,10.40
2023-04-01T20:02:12.090Z,10.60
2023-04-01T20:04:44.950Z,10.60
2023-04-01T20:07:42.283Z,10.70
2023-04-01T20:10:17.999Z,10.80
2023-04-01T20:12:56.642Z,10.80
2023-04-01T20:15:41.752Z,10.70
2023-04-01T20:18:22.140Z,10.60
2023-04-01T20:21:03.348Z,10.50
2023-04-01T20:23:41.010Z,10.30
2023-04-01T20:26:15.192Z,10.10
2023-04-01T20:29:09.237Z,10.00
2023-04-01T20:31:45.885Z,10.00
2023-04-01T20:34:16.445Z,9.90
2023-04-01T20:37:02.319Z,9.80
2023-04-01T20:39:41.716Z,9.80
2023-04-01T20:42:17.501Z,9.80
2023-04-01T20:44:54.045Z,9.80
2023-04-01T20:47:45.558Z,9.70
2023-04-01T20:50:33.588Z,9.70
2023-04-01T20:53:06.461Z,9.70
2023-04-01T20:55:49.125Z,9.70
2023-04-01T20:58:27.641Z,9.70
2023-04-01T21:00:57.773Z,9.70
2023-04-01T21:03:37.154Z,9.60
2023-04-01T21:06:16.631Z,9.60
2023-04-01T21:09:04.173Z,9.60
2023-04-01T21:11:43.544Z,9.60
2023-04-01T21:14:30.256Z,9.60
2023-04-01T21:17:14.413Z,9.60
2023-04-01T21:20:16.987Z,9.70
2023-04-01T21:23:12.190Z,9.60
2023-04-01T21:25:59.873Z,9.60
2023-04-01T21:28:27.118Z,9.70
2023-04-01T21:31:15.721Z,9.80
2023-04-01T21:33:59.501Z,9.80
2023-04-01T21:36:32.848Z,9.70
2023-04-01T21:39:37.421Z,9.70
2023-04-01T21:42:04.751Z,9.70
2023-04-01T21:44:45.403Z,9.70
2023-04-01T21:47:37.460Z,9.70
2023-04-01T21:50:23.658Z,9.60
2023-04-01T21:53:01.114Z,9.70
2023-04-01T21:55:48.516Z,9.70
2023-04-01T21:58:36.963Z,9.80
2023-04-01T22:01:17.231Z,9.90
2023-04-01T22:04:22.357Z,10.00
2023-04-01T22:06:51.412Z,10.20
2023-04-01T22:09:18.694Z,10.30
2023-04-01T22:12:19.249Z,10.30
2023-04-01T22:14:59.164Z,10.20
2023-04-01T22:17:37.605Z,10.10
2023-04-01T22:20:34.790Z,10.10
2023-04-01T22:23:08.216Z,10.10
2023-04-01T22:26:02.042Z,10.10
2023-04-01T22:28:47.736Z,10.10
2023-04-01T22:31:16.926Z,10.10
2023-04-01T22:33:50.365Z,10.20
2023-04-01T22:36:23.555Z,10.20
2023-04-01T22:39:22.481Z,10.20
2023-04-01T22:42:12.502Z,10.20
2023-04-01T22:44:58.379Z,10.20
2023-04-01T22:47:35.159Z,10.10
2023-04-01T22:50:18.087Z,10.10
2023-04-01T22:52:48.037Z,10.00
2023-04-01T22:55:26.096Z,9.90
2023-04-01T22:57:58.241Z,9.90
2023-04-01T23:00:29.239Z,9.80
2023-04-01T23:03:08.194Z,9.80
2023-04-01T23:05:42.266Z,9.80
2023-04-01T23:08:27.704Z,9.70
2023-04-01T23:10:57.217Z,9.70
2023-04-01T23:13:42.690Z,9.60
2023-04-01T23:16:10.052Z,9.60
2023-04-01T23:18:50.501Z,9.60
2023-04-01T23:21:41.822Z,9.70
2023-04-01T23:24:27.794Z,9.60
2023-04-01T23:27:15.859Z,9.50
2023-04-01T23:29:43.924Z,9.50
2023-04-01T23:32:20.766Z,9.60
2023-04-01T23:34:55.436Z,9.60
2023-04-01T23:37:23.146Z,9.50
2023-04-01T23:39:57.721Z,9.50
2023-04-01T23:42:39.569Z,9.50
2023-04-01T23:45:18.239Z,9.40
2023-04-01T23:47:46.136Z,9.40
2023-04-01T23:50:18.742Z,9.40
2023-04-01T23:53:32.739Z,9.40
2023-04-01T23:56:00.109Z,9.40
2023-04-01T23:58:48.903Z,9.40
